createdAt,value
2022-10-25T00:04:56.926Z,97341.06
2022-10-25T00:09:58.652Z,97350.69
2022-10-25T00:15:02.228Z,97343.28
2022-10-25T00:20:04.611Z,97350.75
2022-10-25T00:25:07.975Z,97355.72
2022-10-25T00:30:10.492Z,97358.22
2022-10-25T00:35:12.144Z,97353.34
2022-10-25T00:40:13.806Z,97362.16
2022-10-25T00:45:21.412Z,97369.03
2022-10-25T00:50:31.841Z,97368.47
2022-10-25T00:55:36.030Z,97361.88
2022-10-25T01:00:37.937Z,97367.94
2022-10-25T01:05:39.747Z,97364.09
2022-10-25T01:10:41.522Z,97363.53
2022-10-25T01:15:51.490Z,97367.66
2022-10-25T01:21:19.640Z,97361.63
2022-10-25T01:27:03.171Z,97359.75
2022-10-25T01:32:23.290Z,97357.06
2022-10-25T01:37:40.996Z,97364.25
2022-10-25T01:43:02.457Z,97357.66
2022-10-25T01:48:16.891Z,97350.25
2022-10-25T01:53:18.914Z,97353.81
2022-10-25T01:58:46.680Z,97349.94
2022-10-25T02:03:59.497Z,97350.16
2022-10-25T02:09:27.720Z,97348.97
2022-10-25T02:14:35.714Z,97352.56
2022-10-25T02:19:42.039Z,97348.19
2022-10-25T02:24:46.768Z,97346.00
2022-10-25T02:29:49.451Z,97349.25
2022-10-25T02:34:51.284Z,97355.00
2022-10-25T02:39:53.508Z,97359.91
2022-10-25T02:44:55.269Z,97357.19
2022-10-25T02:49:56.906Z,97359.69
2022-10-25T02:54:58.590Z,97360.75
2022-10-25T03:00:00.525Z,97364.59
2022-10-25T03:05:02.325Z,97371.19
2022-10-25T03:10:04.460Z,97375.50
2022-10-25T03:15:06.792Z,97369.69
2022-10-25T03:20:09.081Z,97374.81
2022-10-25T03:25:10.950Z,97383.31
2022-10-25T03:30:14.138Z,97383.31
2022-10-25T03:35:15.838Z,97393.16
2022-10-25T03:40:19.147Z,97389.78
2022-10-25T03:45:21.048Z,97385.34
2022-10-25T03:50:22.666Z,97398.16
2022-10-25T03:55:24.423Z,97409.22
2022-10-25T04:00:27.172Z,97413.69
2022-10-25T04:05:29.130Z,97414.22
2022-10-25T04:10:30.834Z,97412.53
2022-10-25T04:15:34.007Z,97416.66
2022-10-25T04:20:36.024Z,97406.88
2022-10-25T04:25:37.670Z,97411.31
2022-10-25T04:30:39.638Z,97399.47
2022-10-25T04:35:41.377Z,97406.59
2022-10-25T04:40:43.529Z,97402.56
2022-10-25T04:45:45.187Z,97410.25
2022-10-25T04:50:47.691Z,97414.88
2022-10-25T04:56:00.356Z,97412.72
2022-10-25T05:01:07.737Z,97417.66
2022-10-25T05:06:15.693Z,97422.00
2022-10-25T05:11:19.862Z,97428.06
2022-10-25T05:16:24.744Z,97425.84
2022-10-25T05:21:30.146Z,97426.72
2022-10-25T05:26:32.205Z,97428.75
2022-10-25T05:31:33.924Z,97432.88
2022-10-25T05:36:35.569Z,97443.88
2022-10-25T05:41:37.586Z,97449.91
2022-10-25T05:46:39.246Z,97443.56
2022-10-25T05:51:41.058Z,97455.84
2022-10-25T05:56:43.100Z,97462.53
2022-10-25T06:01:46.785Z,97475.03
2022-10-25T06:06:48.634Z,97473.09
2022-10-25T06:11:50.306Z,97486.53
2022-10-25T06:16:51.962Z,97485.66
2022-10-25T06:21:56.714Z,97482.91
2022-10-25T06:26:58.412Z,97492.66
2022-10-25T06:32:00.085Z,97496.44
2022-10-25T06:37:01.872Z,97511.56
2022-10-25T06:42:04.418Z,97515.72
2022-10-25T06:47:22.389Z,97505.66
2022-10-25T06:52:24.155Z,97515.31
2022-10-25T06:57:25.859Z,97509.34
2022-10-25T07:02:28.080Z,97513.50
2022-10-25T07:07:30.082Z,97520.06
2022-10-25T07:12:37.958Z,97516.63
2022-10-25T07:17:39.644Z,97516.38
2022-10-25T07:22:41.306Z,97523.78
2022-10-25T07:27:42.977Z,97526.84
2022-10-25T07:32:44.698Z,97529.94
2022-10-25T07:37:46.614Z,97544.25
2022-10-25T07:42:49.782Z,97529.50
2022-10-25T07:47:52.247Z,97529.00
2022-10-25T07:52:55.199Z,97525.16
2022-10-25T07:58:01.507Z,97536.19
2022-10-25T08:03:03.814Z,97525.75
2022-10-25T08:08:05.616Z,97538.94
2022-10-25T08:13:07.351Z,97537.28
2022-10-25T08:18:09.739Z,97521.81
2022-10-25T08:23:12.262Z,97531.97
2022-10-25T08:28:14.202Z,97539.41
2022-10-25T08:33:15.893Z,97547.03
2022-10-25T08:38:18.479Z,97547.00
2022-10-25T08:43:50.031Z,97552.72
2022-10-25T08:49:12.079Z,97553.53
2022-10-25T08:54:27.975Z,97551.81
2022-10-25T08:59:34.202Z,97554.47
2022-10-25T09:04:35.979Z,97550.81
2022-10-25T09:10:30.712Z,97549.09
2022-10-25T09:15:32.704Z,97549.84
2022-10-25T09:20:41.520Z,97548.38
2022-10-25T09:25:52.240Z,97557.31
2022-10-25T09:31:00.392Z,97537.41
2022-10-25T09:36:04.042Z,97538.97
2022-10-25T09:41:11.929Z,97533.38
2022-10-25T09:46:19.560Z,97545.13
2022-10-25T09:51:37.960Z,97546.19
2022-10-25T09:56:40.042Z,97544.44
2022-10-25T10:01:42.470Z,97549.03
2022-10-25T10:06:44.698Z,97544.81
2022-10-25T10:11:48.137Z,97542.50
2022-10-25T10:16:56.531Z,97549.31
2022-10-25T10:22:01.708Z,97552.53
2022-10-25T10:27:08.455Z,97551.59
2022-10-25T10:32:26.716Z,97541.25
2022-10-25T10:37:31.344Z,97536.69
2022-10-25T10:42:35.501Z,97537.38
2022-10-25T10:47:44.500Z,97528.63
2022-10-25T10:52:47.915Z,97526.75
2022-10-25T10:57:52.906Z,97521.59
2022-10-25T11:02:57.755Z,97519.19
2022-10-25T11:08:17.578Z,97516.34
2022-10-25T11:13:20.376Z,97507.59
2022-10-25T11:19:03.853Z,97504.59
2022-10-25T11:24:08.557Z,97505.63
2022-10-25T11:29:27.022Z,97510.03
2022-10-25T11:34:59.203Z,97494.53
2022-10-25T11:40:16.095Z,97497.81
2022-10-25T11:45:39.334Z,97498.78
2022-10-25T11:51:06.827Z,97497.03
2022-10-25T11:56:36.507Z,97496.91
2022-10-25T12:01:57.197Z,97484.13
2022-10-25T12:07:17.798Z,97477.09
2022-10-25T12:12:25.906Z,97477.44
2022-10-25T12:17:31.216Z,97482.34
2022-10-25T12:22:49.182Z,97472.09
2022-10-25T12:28:00.741Z,97476.63
2022-10-25T12:33:27.675Z,97468.41
2022-10-25T12:38:40.210Z,97467.53
2022-10-25T12:43:51.020Z,97459.09
2022-10-25T12:49:11.591Z,97460.50
2022-10-25T12:54:50.592Z,97460.63
2022-10-25T13:00:03.836Z,97457.47
2022-10-25T13:05:42.457Z,97459.50
2022-10-25T13:10:58.110Z,97454.06
2022-10-25T13:16:02.899Z,97450.41
2022-10-25T13:21:07.581Z,97453.47
2022-10-25T13:26:20.452Z,97458.03
2022-10-25T13:31:34.401Z,97452.25
2022-10-25T13:36:55.989Z,97452.97
2022-10-25T13:42:18.102Z,97446.63
2022-10-25T13:47:35.631Z,97447.13
2022-10-25T13:52:37.721Z,97448.69
2022-10-25T13:57:48.432Z,97445.09
2022-10-25T14:03:08.530Z,97450.66
2022-10-25T14:08:27.889Z,97447.22
2022-10-25T14:13:54.959Z,97437.28
2022-10-25T14:19:02.248Z,97437.16
2022-10-25T14:24:11.508Z,97441.97
2022-10-25T14:29:15.335Z,97434.22
2022-10-25T14:34:20.840Z,97435.16
2022-10-25T14:39:28.470Z,97433.13
2022-10-25T14:44:43.692Z,97433.09
2022-10-25T14:49:45.508Z,97426.44
2022-10-25T14:54:56.396Z,97429.47
2022-10-25T15:00:02.276Z,97428.59
2022-10-25T15:05:05.394Z,97422.53
2022-10-25T15:10:27.339Z,97416.09
2022-10-25T15:15:40.454Z,97415.28
2022-10-25T15:20:42.164Z,97407.69
2022-10-25T15:25:43.852Z,97421.38
2022-10-25T15:30:48.762Z,97416.25
2022-10-25T15:35:59.510Z,97422.91
2022-10-25T15:41:02.854Z,97416.31
2022-10-25T15:46:05.181Z,97406.66
2022-10-25T15:51:11.708Z,97422.41
2022-10-25T15:56:17.199Z,97422.63
2022-10-25T16:01:19.216Z,97420.81
2022-10-25T16:06:21.001Z,97430.00
2022-10-25T16:11:22.830Z,97428.38
2022-10-25T16:16:39.935Z,97430.88
2022-10-25T16:21:42.841Z,97426.59
2022-10-25T16:26:46.784Z,97427.22
2022-10-25T16:31:48.528Z,97425.66
2022-10-25T16:36:50.749Z,97429.09
2022-10-25T16:41:54.809Z,97427.00
2022-10-25T16:46:56.517Z,97443.09
2022-10-25T16:51:58.408Z,97443.09
2022-10-25T16:57:00.101Z,97444.00
2022-10-25T17:02:01.928Z,97443.47
2022-10-25T17:07:03.764Z,97438.81
2022-10-25T17:12:05.632Z,97447.63
2022-10-25T17:17:07.594Z,97440.22
2022-10-25T17:22:09.285Z,97447.91
2022-10-25T17:27:10.985Z,97441.09
2022-10-25T17:32:12.770Z,97446.06
2022-10-25T17:37:14.540Z,97440.00
2022-10-25T17:42:16.382Z,97438.09
2022-10-25T17:47:18.120Z,97437.28
2022-10-25T17:52:20.678Z,97444.94
2022-10-25T17:57:22.626Z,97441.94
2022-10-25T18:02:24.598Z,97444.41
2022-10-25T18:07:28.878Z,97436.16
2022-10-25T18:12:33.376Z,97436.16
2022-10-25T18:17:35.059Z,97437.50
2022-10-25T18:22:36.707Z,97427.31
2022-10-25T18:27:38.488Z,97423.22
2022-10-25T18:32:40.200Z,97413.66
2022-10-25T18:37:41.840Z,97412.84
2022-10-25T18:42:43.489Z,97416.66
2022-10-25T18:47:49.474Z,97418.03
2022-10-25T18:52:53.216Z,97417.47
2022-10-25T18:57:55.504Z,97417.72
2022-10-25T19:02:57.779Z,97411.94
2022-10-25T19:07:59.540Z,97412.53
2022-10-25T19:13:01.342Z,97407.03
2022-10-25T19:18:03.152Z,97410.34
2022-10-25T19:23:04.801Z,97408.16
2022-10-25T19:28:07.832Z,97410.38
2022-10-25T19:33:09.545Z,97409.81
2022-10-25T19:38:12.553Z,97384.28
2022-10-25T19:43:15.429Z,97382.88
2022-10-25T19:48:17.285Z,97380.72
2022-10-25T19:53:19.251Z,97376.88
2022-10-25T19:58:20.954Z,97368.38
2022-10-25T20:03:22.806Z,97371.38
2022-10-25T20:08:24.417Z,97365.88
2022-10-25T20:13:26.122Z,97372.44
2022-10-25T20:18:34.333Z,97375.97
2022-10-25T20:23:36.567Z,97370.50
2022-10-25T20:28:38.329Z,97379.56
2022-10-25T20:33:40.696Z,97386.13
2022-10-25T20:38:42.587Z,97390.47
2022-10-25T20:43:52.784Z,97393.22
2022-10-25T20:48:54.602Z,97387.19
2022-10-25T20:53:56.962Z,97386.00
2022-10-25T20:58:58.781Z,97381.84
2022-10-25T21:04:00.534Z,97381.06
2022-10-25T21:09:02.255Z,97378.31
2022-10-25T21:14:03.910Z,97376.94
2022-10-25T21:19:05.768Z,97381.59
2022-10-25T21:24:09.998Z,97372.50
2022-10-25T21:29:11.864Z,97366.75
2022-10-25T21:34:13.550Z,97366.78
2022-10-25T21:39:19.661Z,97357.78
2022-10-25T21:44:22.375Z,97349.81
2022-10-25T21:49:24.045Z,97344.91
2022-10-25T21:54:25.775Z,97344.13
2022-10-25T21:59:27.527Z,97339.47
2022-10-25T22:04:29.235Z,97341.44
2022-10-25T22:09:31.040Z,97332.63
2022-10-25T22:14:32.682Z,97330.16
2022-10-25T22:19:34.408Z,97326.31
2022-10-25T22:24:36.225Z,97331.03
2022-10-25T22:29:38.013Z,97315.94
2022-10-25T22:34:39.700Z,97317.88
2022-10-25T22:39:41.430Z,97328.53
2022-10-25T22:44:43.097Z,97320.03
2022-10-25T22:49:44.742Z,97317.28
2022-10-25T22:54:47.157Z,97324.41
2022-10-25T22:59:48.835Z,97330.09
2022-10-25T23:04:50.541Z,97326.25
2022-10-25T23:09:52.265Z,97331.19
2022-10-25T23:14:53.888Z,97330.09
2022-10-25T23:19:55.525Z,97344.06
2022-10-25T23:24:57.185Z,97344.59
2022-10-25T23:29:59.013Z,97341.56
2022-10-25T23:35:00.660Z,97332.22
2022-10-25T23:40:02.283Z,97352.53
2022-10-25T23:45:05.295Z,97365.19
2022-10-25T23:50:08.654Z,97372.00
2022-10-25T23:55:10.422Z,97346.44
